Terminal Aerodrome Forecast
Issued by NWS

Home | Current Version | Previous Version | Text Only | Print | Product List | Glossary On
Versions: 1 2 3 4 5 6 7 8 9 10 11 12 13 14 15 16 17 18 19
000
FTUS44 KMAF 290709 AAA
TAFHOB
TAF AMD
KHOB 290709Z 2907/3006 14012KT P6SM SCT012
      TEMPO 2907/2910 BKN012
     FM291000 25010KT P6SM SKC
     FM291500 26018G26KT P6SM SKC
     FM300100 27010KT P6SM SKC=

USA.gov is the U.S. government's official web portal to all federal, state and local government web resources and services.